Latest Coastal Weather Observations for Legendre Island

IDW60701

Issued at 2:22 am WST Tuesday 28 June 2016 (issued every 10 minutes, with the page automatically refreshed every 10 minutes)

About coastal observations | Map of coastal stations | Coastal observations for WA | Marine services | Other Formats
Station Details ID: 004095 Name: LEGENDRE ISLAND Lat: -20.36 Lon: 116.84 Height: 29.0 m
Data from the previous 72 hours. | See also: Recent months at Legendre Island
Date/Time
WST
Temp
°C
Wind Pressure Rain since
9am
mm
Weather Cloud Vis
km
Sea
Height
m
Swell
Dir  Spd
kts
Gust
kts
hPa Trend Height
m
Period
s
Dir
28/02:00am 19.8 SE 11 13 1015.6 - - - - - - - - -
28/01:30am 18.4 SE 11 13 1015.8 - - - - - - - - -
28/01:00am 17.8 SE 10 11 1016.0 - - - - - - - - -
28/12:30am 18.1 SE 10 11 1016.0 - - - - - - - - -
28/12:00am 18.4 SE 10 11 1016.2 - - - - - - - - -
 
Date/Time
WST
Temp
°C
Wind Pressure Rain since
9am
mm
Weather Cloud Vis
km
Sea
Height
m
Swell
Dir  Spd
kts
Gust
kts
hPa Trend Height
m
Period
s
Dir
27/11:30pm 18.8 SSE 9 10 1016.4 - - - - - - - - -
27/11:00pm 19.1 SE 10 11 1016.5 - - - - - - - - -
27/10:30pm 18.9 SSE 10 11 1016.5 - - - - - - - - -
27/10:00pm 18.7 SE 11 11 1016.5 - - - - - - - - -
27/09:30pm 19.6 SE 8 9 1016.4 - - - - - - - - -
27/09:00pm 19.9 ESE 7 9 1016.5 - - - - - - - - -
27/08:30pm 20.2 ESE 9 11 1016.3 - - - - - - - - -
27/08:00pm 20.0 SE 9 12 1016.2 - - - - - - - - -
27/07:30pm 20.4 ESE 11 14 1015.8 - - - - - - - - -
27/07:00pm 19.3 SE 8 10 1015.8 - - - - - - - - -
27/06:30pm 18.9 SE 7 9 1015.6 - - - - - - - - -
27/06:00pm 19.3 SE 10 13 1015.2 - - - - - - - - -
27/05:30pm 20.6 ESE 9 12 1015.0 - - - - - - - - -
27/05:00pm 21.0 E 9 13 1014.8 - - - - - - - - -
27/04:30pm 21.3 E 10 11 1014.7 - - - - - - - - -
27/04:00pm 21.5 E 10 13 1014.6 - - - - - - - - -
27/03:30pm 21.4 E 12 15 1014.5 - - - - - - - - -
27/03:00pm 21.7 E 13 18 1014.6 - - - - - - - - -
27/02:30pm 21.4 ENE 15 18 1014.8 - - - - - - - - -
27/02:00pm 21.2 ENE 15 21 1015.0 - - - - - - - - -
27/01:30pm 20.9 E 15 18 1015.2 - - - - - - - - -
27/01:00pm 21.0 E 17 21 1015.7 - - - - - - - - -
27/12:30pm 20.6 E 17 20 1016.3 - - - - - - - - -
27/12:00pm 20.2 E 18 23 1016.6 - - - - - - - - -
27/11:30am 19.9 ENE 19 23 1017.1 - - - - - - - - -
27/11:00am 19.9 E 22 26 1017.2 - - - - - - - - -
27/10:30am 19.9 E 22 28 1017.4 - - - - - - - - -
27/10:00am 19.6 ENE 23 28 1017.7 - - - - - - - - -
27/09:30am 19.6 E 24 29 1017.6 - - - - - - - - -
27/09:00am 19.4 E 25 29 1017.8 - - - - - - - - -
27/08:30am 19.1 E 24 29 1017.7 - - - - - - - - -
27/08:00am 19.1 E 26 32 1017.4 - - - - - - - - -
27/07:30am 18.9 E 25 31 1017.4 - - - - - - - - -
27/07:00am 18.8 E 26 33 1017.1 - - - - - - - - -
27/06:30am 19.2 E 25 29 1017.1 - - - - - - - - -
27/06:00am 19.2 E 24 28 1017.1 - - - - - - - - -
27/05:30am 19.5 E 25 33 1016.9 - - - - - - - - -
27/05:00am 19.9 E 23 28 1016.8 - - - - - - - - -
27/04:30am 20.2 E 24 30 1016.7 - - - - - - - - -
27/04:00am 20.3 E 23 30 1016.7 - - - - - - - - -
27/03:30am 20.4 ENE 24 29 1016.5 - - - - - - - - -
27/03:00am 20.8 ENE 23 29 1016.5 - - - - - - - - -
27/02:30am 20.9 E 23 27 1016.7 - - - - - - - - -
27/02:00am 21.3 E 21 26 1016.8 - - - - - - - - -
27/01:30am 21.3 E 21 26 1016.9 - - - - - - - - -
27/01:00am 21.4 E 20 24 1017.0 - - - - - - - - -
27/12:30am 21.4 ESE 19 23 1017.0 - - - - - - - - -
27/12:00am 21.4 ESE 20 23 1017.0 - - - - - - - - -
 
Date/Time
WST
Temp
°C
Wind Pressure Rain since
9am
mm
Weather Cloud Vis
km
Sea
Height
m
Swell
Dir  Spd
kts
Gust
kts
hPa Trend Height
m
Period
s
Dir
26/11:30pm 21.4 E 18 22 1017.3 - - - - - - - - -
26/11:00pm 21.7 ESE 19 22 1017.4 - - - - - - - - -
26/10:30pm 21.8 ESE 19 23 1017.6 - - - - - - - - -
26/10:00pm 22.0 ESE 19 23 1017.7 - - - - - - - - -
26/09:30pm 22.2 ESE 20 24 1017.6 - - - - - - - - -
26/09:00pm 22.3 ESE 17 21 1017.6 - - - - - - - - -
26/08:30pm 21.7 ESE 16 22 1017.6 - - - - - - - - -
26/08:00pm 22.3 ESE 16 22 1017.4 - - - - - - - - -
26/07:30pm 22.5 ESE 19 23 1017.2 - - - - - - - - -
26/07:00pm 22.6 ESE 17 24 1016.9 - - - - - - - - -
26/06:30pm 21.3 ESE 10 14 1017.0 - - - - - - - - -
26/06:00pm 22.2 ESE 15 18 1016.6 - - - - - - - - -
26/05:30pm 21.9 ESE 14 19 1016.5 - - - - - - - - -
26/05:00pm 22.3 ESE 15 19 1016.2 - - - - - - - - -
26/04:30pm 22.3 ESE 16 20 1016.2 - - - - - - - - -
26/04:00pm 22.5 ESE 16 21 1016.1 - - - - - - - - -
26/03:30pm 22.7 ESE 16 19 1016.2 - - - - - - - - -
26/03:00pm 22.7 ESE 17 21 1016.2 - - - - - - - - -
26/02:30pm 22.4 ESE 16 20 1016.2 - - - - - - - - -
26/02:00pm 22.0 ESE 15 19 1016.5 - - - - - - - - -
26/01:30pm 22.0 ESE 16 20 1016.5 - - - - - - - - -
26/01:00pm 22.0 ESE 17 21 1017.0 - - - - - - - - -
26/12:30pm 21.7 ESE 18 23 1017.1 - - - - - - - - -
26/12:00pm 21.7 ESE 19 25 1017.3 - - - - - - - - -
26/11:30am 21.4 ESE 22 27 1017.6 - - - - - - - - -
26/11:00am 21.1 E 23 29 1018.0 - - - - - - - - -
26/10:30am 20.9 E 25 32 1018.4 - - - - - - - - -
26/10:00am 21.0 ESE 26 31 1018.6 - - - - - - - - -
26/09:30am 20.7 E 28 32 1018.3 - - - - - - - - -
26/09:00am 20.8 ESE 28 34 1018.3 - - - - - - - - -
26/08:30am 20.8 E 30 35 1017.8 - - - - - - - - -
26/08:00am 20.7 ESE 30 35 1017.5 - - - - - - - - -
26/07:30am 20.6 E 30 34 1017.0 - - - - - - - - -
26/07:00am 20.5 ESE 29 34 1016.9 - - - - - - - - -
26/06:30am 20.2 ESE 26 32 1016.8 - - - - - - - - -
26/06:00am 20.2 ESE 25 30 1016.7 - - - - - - - - -
26/05:30am 20.4 ESE 27 32 1016.3 - - - - - - - - -
26/05:00am 20.4 ESE 25 30 1016.2 - - - - - - - - -
26/04:30am 20.3 ESE 23 29 1016.3 - - - - - - - - -
26/04:00am 20.8 ESE 21 27 1016.3 - - - - - - - - -
26/03:30am 20.7 ESE 18 24 1016.3 - - - - - - - - -
26/03:00am 20.9 ESE 19 25 1016.3 - - - - - - - - -
26/02:30am 21.6 ESE 19 24 1016.1 - - - - - - - - -
26/02:00am 21.4 ESE 21 25 1015.9 - - - - - - - - -
26/01:30am 21.1 ESE 15 19 1016.0 - - - - - - - - -
26/01:00am 21.4 SE 17 22 1016.1 - - - - - - - - -
26/12:30am 21.0 SE 16 20 1016.3 - - - - - - - - -
26/12:00am 21.0 SSE 16 21 1016.2 - - - - - - - - -
 
Date/Time
WST
Temp
°C
Wind Pressure Rain since
9am
mm
Weather Cloud Vis
km
Sea
Height
m
Swell
Dir  Spd
kts
Gust
kts
hPa Trend Height
m
Period
s
Dir
25/11:30pm 21.0 SSE 15 20 1016.0 - - - - - - - - -
25/11:00pm 21.3 SSE 15 19 1015.8 - - - - - - - - -
25/10:30pm 21.3 SSE 13 18 1015.6 - - - - - - - - -
25/10:00pm 21.2 S 13 16 1015.5 - - - - - - - - -
25/09:30pm 21.2 S 12 14 1015.4 - - - - - - - - -
25/09:00pm 21.3 SSW 10 12 1015.2 - - - - - - - - -
25/08:30pm 22.0 SSW 13 15 1015.2 - - - - - - - - -
25/08:00pm 22.2 SSW 12 13 1014.9 - - - - - - - - -
25/07:30pm 22.5 SSW 13 15 1014.6 - - - - - - - - -
25/07:00pm 22.7 SW 13 15 1014.3 - - - - - - - - -
25/06:30pm 22.6 SW 12 14 1014.1 - - - - - - - - -
25/06:00pm 22.6 SW 11 13 1013.8 - - - - - - - - -
25/05:30pm 23.2 SW 11 14 1013.5 - - - - - - - - -
25/05:00pm 23.5 WSW 9 11 1013.3 - - - - - - - - -
25/04:30pm 23.5 WSW 10 11 1013.2 - - - - - - - - -
25/04:00pm 23.9 SW 11 15 1013.0 - - - - - - - - -
25/03:30pm 23.9 SW 10 13 1012.8 - - - - - - - - -
25/03:00pm 23.3 SW 10 13 1012.9 - - - - - - - - -
25/02:30pm 23.7 SW 10 13 1013.1 - - - - - - - - -
25/02:00pm 23.8 SW 10 12 1013.4 - - - - - - - - -
25/01:30pm 23.4 SSW 7 10 1013.7 - - - - - - - - -
25/01:00pm 23.5 SSW 7 9 1014.0 - - - - - - - - -
25/12:30pm 23.7 SSW 9 12 1014.4 - - - - - - - - -
25/12:00pm 23.1 SSW 13 16 1014.9 - - - - - - - - -
25/11:30am 23.0 S 9 12 1015.2 - - - - - - - - -
25/11:00am 22.2 SSE 9 12 1015.4 - - - - - - - - -
25/10:30am 21.6 SSE 7 10 1015.6 - - - - - - - - -
25/10:00am 21.0 SSE 8 10 1015.7 - - - - - - - - -
25/09:30am 21.0 S 8 10 1015.8 - - - - - - - - -
25/09:00am 20.2 S 9 12 1015.7 - - - - - - - - -
25/08:30am 20.1 S 9 11 1015.4 - - - - - - - - -
25/08:00am 20.6 S 9 12 1015.1 - - - - - - - - -
25/07:30am 19.8 SSE 7 9 1014.6 - - - - - - - - -
25/07:00am 19.6 S 9 11 1014.5 - - - - - - - - -
25/06:30am 19.5 S 9 12 1014.0 - - - - - - - - -
25/06:00am 19.6 S 9 12 1013.7 - - - - - - - - -
25/05:30am 19.6 S 10 13 1013.4 - - - - - - - - -
25/05:00am 19.8 SSE 11 14 1013.3 - - - - - - - - -
25/04:30am 19.8 SE 11 14 1012.9 - - - - - - - - -
25/04:00am 19.9 SE 11 14 1012.6 - - - - - - - - -
25/03:30am 19.9 SE 11 15 1012.6 - - - - - - - - -
25/03:00am 19.9 SE 12 15 1012.7 - - - - - - - - -
25/02:30am 19.9 SE 12 15 1012.8 - - - - - - - - -

Other Formats:

Comma delimited format used in spreadsheet applications
http://www.bom.gov.au/fwo/IDW60701/IDW60701.94307.axf

JavaScript Object Notation format (JSON) in row-major order
http://www.bom.gov.au/fwo/IDW60701/IDW60701.94307.json